Swan Lake, South Dakota
Current Conditions -  °F | °C
As of 1:15 PM on Monday 22 Dec 2014 (Local Time) from KYKN Reporting Station
Overcast Overcast  
Wind Chill:   Ceiling: 600
Heat Index:   Visibility: 8mi
Dew Point:   Wind: 9mph
Humidity: 87%   Direction: 320°NW
Pressure: 29.42"   Gusts: NA
Location:  43.1951°N, 97.1515°W
Report Text: KYKN 221915Z AUTO 32008KT 8SM OVC006 04/02 A2942 RMK AO1
Loading
Personal Weather Stations






























Interactive Weather Map New forecast layout! Learn more

10-Day Weather Forecast

Advertisements
Track Severe Weather on mobile